Main page
METAR-TAF:

METAR-TAF

Airports :

Jönköping Airport

Jönköping, Sweden

latitude: 57-46N, longitude: 014-05E, elevation: 226 m

Current weather observation

The report was made 33 minutes ago, at 02:20 UTC
Wind 6 kt from the West/Southwest
Temperature -5°C
Humidity 93%
Pressure 1016 hPa
Visibility 10 km or more

METAR: ESGJ 230220Z AUTO 24006KT 9999 NCD M05/M06 Q1016

Time: 04:53 (02:53 UTC)

Forecast

The report was made 23 minutes ago, at 02:30 UTC
Forecast valid from 23 at 03 UTC to 23 at 12 UTC
Wind 6 kt from the West/Southwest
Visibility 10 km or more
no clouds below 1500 m and no cumulonimbus

TAF: ESGJ 230230Z 2303/2312 25006KT CAVOK

Weather observations and forecasts of more than 4000 airports (METAR and TAF reports).

The available stations are represented by yellow and red dots on the map.

Hover mouse over dot to see the name of the station.

Then click to see weather observations and forecasts.

To change the map : click on the green buttons with a black cross to zoom in, on the green button with a dash to zoom out, or on the green arrows for adjacent maps.


METAR-TAF: